createdAt,value
2023-01-28T00:00:49.306Z,5.80
2023-01-28T00:03:16.036Z,7.27
2023-01-28T00:05:43.160Z,6.20
2023-01-28T00:08:10.330Z,5.80
2023-01-28T00:10:39.715Z,6.23
2023-01-28T00:13:14.680Z,6.50
2023-01-28T00:15:41.735Z,7.03
2023-01-28T00:18:08.259Z,6.70
2023-01-28T00:20:35.601Z,6.93
2023-01-28T00:23:02.154Z,7.07
2023-01-28T00:25:28.626Z,6.87
2023-01-28T00:27:55.685Z,7.13
2023-01-28T00:30:22.138Z,7.07
2023-01-28T00:32:48.599Z,7.50
2023-01-28T00:35:16.041Z,7.87
2023-01-28T00:37:46.019Z,7.63
2023-01-28T00:40:12.954Z,8.77
2023-01-28T00:42:39.417Z,9.37
2023-01-28T00:45:06.324Z,8.77
2023-01-28T00:47:32.782Z,9.20
2023-01-28T00:49:59.248Z,9.67
2023-01-28T00:52:26.077Z,9.57
2023-01-28T00:54:52.644Z,11.13
2023-01-28T00:57:21.589Z,10.33
2023-01-28T00:59:48.034Z,9.83
2023-01-28T01:02:14.586Z,10.57
2023-01-28T01:04:41.327Z,9.93
2023-01-28T01:07:07.996Z,10.40
2023-01-28T01:09:34.504Z,10.00
2023-01-28T01:12:01.349Z,10.07
2023-01-28T01:14:27.867Z,10.17
2023-01-28T01:16:54.424Z,9.60
2023-01-28T01:19:21.491Z,11.00
2023-01-28T01:21:50.796Z,10.83
2023-01-28T01:24:17.657Z,11.13
2023-01-28T01:26:44.307Z,10.60
2023-01-28T01:29:10.874Z,11.00
2023-01-28T01:31:37.859Z,10.93
2023-01-28T01:34:04.749Z,10.90
2023-01-28T01:36:31.914Z,11.13
2023-01-28T01:38:58.479Z,10.70
2023-01-28T01:41:26.969Z,7.00
2023-01-28T01:43:59.948Z,6.50
2023-01-28T01:46:43.894Z,5.67
2023-01-28T01:49:19.433Z,6.67
2023-01-28T01:51:51.311Z,5.20
2023-01-28T01:54:19.680Z,5.30
2023-01-28T01:56:49.544Z,5.17
2023-01-28T01:59:22.395Z,4.73
2023-01-28T02:01:49.172Z,4.87
2023-01-28T02:04:18.396Z,4.10
2023-01-28T02:06:45.806Z,4.53
2023-01-28T02:09:42.156Z,4.47
2023-01-28T02:12:16.185Z,4.70
2023-01-28T02:14:48.492Z,4.60
2023-01-28T02:17:16.012Z,4.87
2023-01-28T02:19:58.098Z,4.50
2023-01-28T02:22:56.722Z,4.40
2023-01-28T02:25:29.374Z,4.33
2023-01-28T02:28:01.813Z,4.50
2023-01-28T02:30:35.249Z,4.23
2023-01-28T02:33:08.692Z,3.80
2023-01-28T02:35:46.054Z,4.63
2023-01-28T02:38:19.571Z,4.17
2023-01-28T02:41:05.804Z,4.00
2023-01-28T02:43:37.393Z,4.47
2023-01-28T02:46:37.978Z,5.10
2023-01-28T02:49:09.913Z,4.23
2023-01-28T02:52:52.545Z,5.23
2023-01-28T02:55:40.604Z,5.43
2023-01-28T02:58:32.749Z,6.17
2023-01-28T03:01:11.493Z,6.47
2023-01-28T03:03:40.874Z,6.03
2023-01-28T03:06:11.777Z,5.77
2023-01-28T03:09:11.946Z,5.83
2023-01-28T03:12:03.482Z,5.67
2023-01-28T03:14:50.903Z,5.27
2023-01-28T03:17:43.652Z,5.60
2023-01-28T03:20:29.563Z,5.10
2023-01-28T03:23:18.615Z,5.50
2023-01-28T03:26:10.171Z,5.30
2023-01-28T03:28:58.472Z,5.93
2023-01-28T03:31:44.920Z,4.83
2023-01-28T03:34:31.094Z,5.77
2023-01-28T03:36:58.175Z,6.17
2023-01-28T03:39:30.146Z,5.40
2023-01-28T03:42:12.632Z,5.90
2023-01-28T03:44:55.140Z,6.03
2023-01-28T03:47:27.677Z,5.93
2023-01-28T03:49:59.728Z,5.27
2023-01-28T03:52:30.232Z,6.37
2023-01-28T03:54:56.968Z,5.77
2023-01-28T03:57:26.450Z,6.60
2023-01-28T03:59:54.015Z,6.80
2023-01-28T04:02:22.129Z,6.30
2023-01-28T04:04:50.265Z,6.53
2023-01-28T04:07:17.343Z,6.30
2023-01-28T04:09:44.484Z,6.67
2023-01-28T04:12:11.460Z,7.20
2023-01-28T04:14:40.159Z,7.83
2023-01-28T04:17:09.677Z,7.20
2023-01-28T04:19:38.006Z,7.17
2023-01-28T04:22:10.460Z,7.27
2023-01-28T04:24:37.030Z,9.50
2023-01-28T04:27:03.675Z,9.43
2023-01-28T04:29:30.154Z,9.27
2023-01-28T04:31:57.033Z,8.60
2023-01-28T04:34:23.515Z,9.17
2023-01-28T04:36:50.121Z,8.90
2023-01-28T04:39:16.645Z,8.90
2023-01-28T04:41:43.111Z,9.30
2023-01-28T04:44:09.736Z,8.97
2023-01-28T04:46:39.157Z,9.23
2023-01-28T04:49:06.022Z,9.30
2023-01-28T04:51:32.560Z,9.57
2023-01-28T04:53:59.095Z,8.80
2023-01-28T04:56:25.645Z,10.40
2023-01-28T04:58:52.275Z,10.40
2023-01-28T05:01:18.870Z,10.70
2023-01-28T05:03:45.377Z,10.20
2023-01-28T05:06:11.843Z,9.57
2023-01-28T05:08:38.531Z,9.80
2023-01-28T05:11:05.237Z,9.83
2023-01-28T05:13:31.760Z,10.90
2023-01-28T05:15:58.685Z,10.93
2023-01-28T05:18:25.208Z,10.73
2023-01-28T05:20:51.688Z,10.83
2023-01-28T05:23:18.175Z,11.07
2023-01-28T05:25:45.391Z,10.70
2023-01-28T05:28:11.911Z,10.97
2023-01-28T05:30:40.333Z,11.00
2023-01-28T05:33:06.866Z,11.60
2023-01-28T05:35:34.102Z,10.93
2023-01-28T05:38:00.632Z,11.43
2023-01-28T05:40:27.083Z,11.90
2023-01-28T05:42:53.603Z,11.83
2023-01-28T05:45:20.341Z,11.20
2023-01-28T05:47:46.917Z,11.43
2023-01-28T05:50:15.012Z,11.43
2023-01-28T05:52:41.780Z,11.27
2023-01-28T05:55:09.128Z,11.53
2023-01-28T05:57:35.660Z,11.60
2023-01-28T06:00:02.421Z,12.27
2023-01-28T06:02:28.958Z,11.60
2023-01-28T06:04:55.460Z,12.17
2023-01-28T06:07:22.031Z,11.97
2023-01-28T06:09:48.628Z,11.43
2023-01-28T06:12:15.203Z,11.00
2023-01-28T06:14:42.472Z,11.73
2023-01-28T06:17:09.040Z,12.47
2023-01-28T06:19:35.986Z,12.00
2023-01-28T06:22:02.571Z,12.33
2023-01-28T06:24:29.123Z,11.80
2023-01-28T06:26:56.160Z,12.27
2023-01-28T06:29:23.530Z,11.73
2023-01-28T06:31:51.246Z,11.53
2023-01-28T06:34:18.047Z,11.90
2023-01-28T06:36:45.062Z,12.23
2023-01-28T06:39:11.930Z,13.37
2023-01-28T06:41:38.407Z,12.77
2023-01-28T06:44:05.150Z,13.23
2023-01-28T06:46:31.736Z,12.70
2023-01-28T06:48:58.272Z,12.60
2023-01-28T06:51:24.815Z,12.30
2023-01-28T06:53:51.349Z,11.97
2023-01-28T06:56:18.122Z,11.40
2023-01-28T06:58:44.652Z,12.63
2023-01-28T07:01:11.114Z,11.70
2023-01-28T07:03:37.604Z,12.67
2023-01-28T07:06:04.737Z,13.07
2023-01-28T07:08:31.432Z,12.60
2023-01-28T07:10:58.233Z,11.70
2023-01-28T07:13:24.963Z,12.10
2023-01-28T07:15:51.730Z,11.47
2023-01-28T07:18:18.917Z,11.90
2023-01-28T07:20:45.903Z,11.80
2023-01-28T07:23:12.857Z,11.23
2023-01-28T07:25:39.386Z,12.90
2023-01-28T07:28:05.876Z,12.30
2023-01-28T07:30:32.617Z,12.70
2023-01-28T07:33:00.779Z,12.73
2023-01-28T07:35:27.439Z,11.70
2023-01-28T07:37:55.368Z,12.97
2023-01-28T07:40:22.428Z,13.13
2023-01-28T07:42:49.074Z,12.10
2023-01-28T07:45:16.472Z,12.67
2023-01-28T07:47:42.998Z,12.23
2023-01-28T07:50:11.209Z,12.47
2023-01-28T07:52:44.337Z,12.67
2023-01-28T07:55:15.571Z,11.93
2023-01-28T07:58:11.963Z,11.97
2023-01-28T08:00:39.202Z,12.37
2023-01-28T08:03:08.373Z,13.60
2023-01-28T08:05:41.551Z,12.40
2023-01-28T08:08:09.921Z,13.00
2023-01-28T08:10:37.145Z,14.07
2023-01-28T08:13:04.457Z,13.77
2023-01-28T08:15:34.081Z,14.67
2023-01-28T08:18:01.633Z,14.70
2023-01-28T08:20:29.493Z,14.57
2023-01-28T08:23:08.831Z,15.00
2023-01-28T08:25:36.111Z,14.60
2023-01-28T08:28:03.575Z,14.13
2023-01-28T08:30:30.208Z,14.57
2023-01-28T08:33:00.537Z,14.90
2023-01-28T08:35:28.787Z,14.43
2023-01-28T08:37:55.285Z,15.00
2023-01-28T08:40:22.530Z,14.67
2023-01-28T08:42:53.479Z,14.33
2023-01-28T08:45:27.637Z,14.00
2023-01-28T08:47:56.111Z,15.57
2023-01-28T08:50:24.794Z,15.50
2023-01-28T08:52:59.481Z,14.60
2023-01-28T08:55:27.432Z,16.10
2023-01-28T08:57:54.161Z,15.73
2023-01-28T09:00:21.932Z,14.97
2023-01-28T09:02:52.462Z,14.77
2023-01-28T09:05:20.129Z,14.43
2023-01-28T09:07:46.909Z,14.67
2023-01-28T09:10:14.223Z,14.40
2023-01-28T09:12:40.862Z,14.53
2023-01-28T09:15:08.431Z,14.20
2023-01-28T09:17:34.994Z,13.83
2023-01-28T09:20:01.631Z,14.17
2023-01-28T09:22:28.136Z,15.00
2023-01-28T09:24:54.628Z,14.47
2023-01-28T09:27:21.268Z,14.73
2023-01-28T09:29:47.825Z,15.13
2023-01-28T09:32:14.270Z,14.17
2023-01-28T09:34:40.972Z,14.30
2023-01-28T09:37:07.543Z,14.13
2023-01-28T09:39:34.461Z,14.63
2023-01-28T09:42:13.180Z,14.03
2023-01-28T09:45:06.085Z,14.40
2023-01-28T09:47:37.853Z,13.83
2023-01-28T09:50:27.429Z,13.27
2023-01-28T09:52:57.511Z,13.87
2023-01-28T09:55:46.242Z,14.40
2023-01-28T09:58:16.079Z,13.73
2023-01-28T10:01:05.237Z,13.53
2023-01-28T10:03:38.194Z,12.87
2023-01-28T10:06:26.765Z,13.10
2023-01-28T10:09:19.511Z,13.17
2023-01-28T10:12:19.548Z,13.40
2023-01-28T10:14:52.205Z,11.93
2023-01-28T10:17:42.680Z,12.03
2023-01-28T10:20:12.313Z,12.27
2023-01-28T10:22:45.535Z,12.43
2023-01-28T10:25:20.662Z,11.87
2023-01-28T10:27:49.275Z,12.73
2023-01-28T10:30:22.481Z,14.50
2023-01-28T10:33:05.815Z,13.43
2023-01-28T10:35:41.817Z,13.10
2023-01-28T10:38:13.492Z,12.73
2023-01-28T10:40:42.657Z,12.13
2023-01-28T10:43:09.703Z,13.53
2023-01-28T10:45:45.713Z,13.47
2023-01-28T10:48:21.317Z,12.93
2023-01-28T10:51:05.340Z,13.80
2023-01-28T10:53:43.677Z,12.73
2023-01-28T10:56:18.001Z,13.27
2023-01-28T10:59:04.429Z,12.57
2023-01-28T11:01:47.882Z,11.80
2023-01-28T11:04:30.270Z,13.00
2023-01-28T11:07:04.016Z,12.33
2023-01-28T11:09:35.952Z,11.33
2023-01-28T11:12:21.889Z,11.73
2023-01-28T11:14:52.380Z,12.60
2023-01-28T11:17:21.631Z,12.60
2023-01-28T11:19:48.718Z,14.13
2023-01-28T11:22:24.711Z,11.97
2023-01-28T11:24:51.393Z,12.27
2023-01-28T11:27:23.876Z,12.20
2023-01-28T11:29:57.263Z,12.43
2023-01-28T11:32:26.672Z,13.27
2023-01-28T11:34:57.365Z,13.10
2023-01-28T11:37:26.262Z,12.97
2023-01-28T11:40:21.567Z,12.97
2023-01-28T11:42:50.759Z,13.73
2023-01-28T11:45:22.694Z,13.07
2023-01-28T11:48:07.063Z,12.57
2023-01-28T11:50:59.993Z,12.47
2023-01-28T11:53:50.166Z,13.80
2023-01-28T11:56:33.756Z,14.27
2023-01-28T11:59:19.974Z,13.73
2023-01-28T12:02:01.655Z,13.33
2023-01-28T12:05:05.454Z,13.03
2023-01-28T12:07:34.670Z,13.57
2023-01-28T12:10:09.832Z,12.77
2023-01-28T12:12:51.672Z,13.17
2023-01-28T12:15:40.314Z,13.37
2023-01-28T12:18:31.968Z,13.53
2023-01-28T12:21:01.539Z,13.33
2023-01-28T12:23:51.022Z,14.10
2023-01-28T12:26:46.802Z,13.77
2023-01-28T12:29:41.444Z,14.07
2023-01-28T12:32:39.575Z,13.60
2023-01-28T12:35:07.875Z,15.03
2023-01-28T12:37:42.625Z,15.37
2023-01-28T12:40:33.699Z,14.67
2023-01-28T12:43:43.346Z,13.83
2023-01-28T12:46:17.893Z,13.80
2023-01-28T12:48:53.061Z,15.30
2023-01-28T12:51:38.456Z,14.97
2023-01-28T12:54:38.610Z,13.87
2023-01-28T12:57:05.251Z,14.63
2023-01-28T12:59:39.857Z,15.13
2023-01-28T13:02:22.005Z,14.43
2023-01-28T13:05:02.428Z,14.63
2023-01-28T13:07:38.013Z,15.33
2023-01-28T13:10:12.806Z,14.93
2023-01-28T13:12:41.502Z,14.17
2023-01-28T13:15:17.187Z,14.87
2023-01-28T13:18:00.318Z,14.50
2023-01-28T13:20:39.399Z,15.30
2023-01-28T13:23:26.041Z,16.00
2023-01-28T13:25:55.833Z,14.70
2023-01-28T13:28:31.580Z,14.27
2023-01-28T13:31:02.459Z,15.97
2023-01-28T13:33:33.056Z,15.90
2023-01-28T13:36:06.626Z,15.33
2023-01-28T13:38:34.137Z,15.47
2023-01-28T13:41:01.458Z,14.37
2023-01-28T13:43:34.119Z,15.43
2023-01-28T13:46:04.656Z,16.03
2023-01-28T13:48:38.741Z,16.53
2023-01-28T13:51:12.883Z,14.80
2023-01-28T13:53:49.296Z,16.23
2023-01-28T13:56:25.718Z,16.37
2023-01-28T13:59:23.916Z,16.00
2023-01-28T14:02:12.018Z,15.83
2023-01-28T14:04:45.293Z,16.27
2023-01-28T14:07:40.880Z,15.37
2023-01-28T14:10:38.701Z,14.50
2023-01-28T14:13:20.373Z,16.67
2023-01-28T14:15:50.726Z,14.80
2023-01-28T14:18:36.795Z,16.00
2023-01-28T14:21:11.213Z,15.00
2023-01-28T14:23:47.154Z,14.73
2023-01-28T14:26:44.580Z,17.13
2023-01-28T14:30:05.233Z,16.03
2023-01-28T14:32:33.446Z,15.40
2023-01-28T14:35:07.343Z,17.30
2023-01-28T14:37:34.017Z,16.50
2023-01-28T14:40:04.336Z,15.57
2023-01-28T14:42:35.932Z,15.67
2023-01-28T14:45:11.563Z,16.67
2023-01-28T14:47:56.258Z,16.53
2023-01-28T14:51:03.076Z,16.80
2023-01-28T14:53:29.557Z,16.73
2023-01-28T14:55:59.148Z,17.37
2023-01-28T14:58:37.382Z,17.73
2023-01-28T15:01:03.999Z,16.43
2023-01-28T15:03:32.086Z,15.73
2023-01-28T15:06:05.868Z,14.63
2023-01-28T15:08:32.542Z,16.67
2023-01-28T15:11:01.777Z,16.03
2023-01-28T15:13:30.839Z,15.77
2023-01-28T15:16:00.925Z,15.33
2023-01-28T15:18:34.301Z,15.93
2023-01-28T15:21:02.098Z,15.73
2023-01-28T15:23:34.545Z,16.53
2023-01-28T15:26:06.534Z,15.97
2023-01-28T15:28:37.064Z,16.70
2023-01-28T15:31:04.203Z,17.93
2023-01-28T15:33:30.900Z,17.63
2023-01-28T15:35:58.929Z,17.90
2023-01-28T15:38:28.516Z,18.40
2023-01-28T15:40:59.487Z,18.37
2023-01-28T15:43:31.983Z,19.03
2023-01-28T15:46:00.147Z,18.40
2023-01-28T15:48:29.375Z,19.83
2023-01-28T15:51:04.942Z,22.13
2023-01-28T15:53:41.984Z,20.13
2023-01-28T15:56:13.505Z,20.53
2023-01-28T15:58:41.812Z,22.00
2023-01-28T16:01:08.496Z,20.97
2023-01-28T16:03:37.175Z,22.07
2023-01-28T16:06:09.736Z,22.17
2023-01-28T16:08:54.333Z,22.80
2023-01-28T16:11:28.663Z,22.63
2023-01-28T16:13:56.146Z,22.37
2023-01-28T16:16:32.240Z,22.13
2023-01-28T16:18:59.513Z,23.47
2023-01-28T16:21:33.801Z,23.40
2023-01-28T16:24:07.693Z,23.00
2023-01-28T16:26:36.107Z,24.80
2023-01-28T16:29:17.156Z,24.10
2023-01-28T16:31:43.914Z,25.13
2023-01-28T16:34:10.841Z,24.20
2023-01-28T16:36:37.608Z,23.63
2023-01-28T16:39:04.407Z,23.23
2023-01-28T16:41:35.212Z,24.30
2023-01-28T16:44:05.775Z,24.03
2023-01-28T16:46:36.056Z,22.60
2023-01-28T16:49:02.739Z,25.10
2023-01-28T16:51:29.653Z,23.07
2023-01-28T16:53:57.326Z,22.00
2023-01-28T16:59:16.328Z,22.27
2023-01-28T17:01:44.431Z,23.10
2023-01-28T17:04:12.796Z,22.57
2023-01-28T17:06:43.001Z,22.17
2023-01-28T17:09:11.842Z,22.77
2023-01-28T17:11:40.730Z,21.90
2023-01-28T17:14:07.976Z,22.10
2023-01-28T17:16:34.894Z,21.97
2023-01-28T17:19:01.797Z,23.27
2023-01-28T17:21:28.726Z,22.13
2023-01-28T17:23:56.535Z,21.17
2023-01-28T17:26:24.168Z,22.30
2023-01-28T17:28:54.201Z,20.83
2023-01-28T17:31:21.833Z,21.37
2023-01-28T17:33:54.337Z,21.33
2023-01-28T17:36:21.308Z,21.20
2023-01-28T17:38:48.682Z,20.57
2023-01-28T17:41:17.495Z,20.00
2023-01-28T17:43:49.729Z,20.73
2023-01-28T17:46:17.350Z,19.67
2023-01-28T17:48:45.859Z,20.47
2023-01-28T17:51:13.911Z,20.97
2023-01-28T17:53:45.919Z,23.00
2023-01-28T17:56:29.127Z,20.33
2023-01-28T17:59:02.793Z,21.40
2023-01-28T18:01:30.259Z,21.03
2023-01-28T18:03:58.824Z,21.13
2023-01-28T18:06:25.799Z,21.67
2023-01-28T18:08:52.406Z,22.57
2023-01-28T18:11:19.964Z,21.67
2023-01-28T18:13:47.139Z,20.80
2023-01-28T18:16:17.326Z,20.57
2023-01-28T18:18:45.188Z,21.50
2023-01-28T18:21:51.803Z,22.23
2023-01-28T18:24:19.828Z,21.00
2023-01-28T18:26:46.577Z,22.03
2023-01-28T18:29:17.059Z,21.67
2023-01-28T18:31:44.854Z,23.20
2023-01-28T18:34:11.721Z,22.03
2023-01-28T18:36:38.615Z,21.30
2023-01-28T18:39:12.644Z,21.03
2023-01-28T18:41:39.649Z,22.17
2023-01-28T18:44:08.217Z,22.90
2023-01-28T18:46:35.304Z,22.97
2023-01-28T18:49:04.185Z,21.30
2023-01-28T18:51:31.145Z,22.93
2023-01-28T18:54:04.006Z,22.13
2023-01-28T18:56:31.972Z,21.93
2023-01-28T18:59:00.930Z,21.50
2023-01-28T19:01:28.449Z,21.50
2023-01-28T19:03:57.117Z,22.03
2023-01-28T19:06:24.831Z,21.97
2023-01-28T19:08:57.964Z,21.50
2023-01-28T19:11:26.644Z,23.23
2023-01-28T19:13:53.883Z,22.90
2023-01-28T19:16:21.870Z,22.83
2023-01-28T19:18:57.519Z,23.03
2023-01-28T19:21:25.658Z,22.37
2023-01-28T19:24:01.823Z,23.50
2023-01-28T19:26:30.784Z,22.73
2023-01-28T19:28:58.064Z,25.27
2023-01-28T19:31:26.360Z,26.33
2023-01-28T19:33:56.826Z,24.87
2023-01-28T19:36:26.192Z,23.20
2023-01-28T19:38:56.584Z,26.73
2023-01-28T19:41:23.399Z,25.27
2023-01-28T19:43:50.190Z,24.90
2023-01-28T19:46:18.167Z,25.63
2023-01-28T19:48:45.554Z,27.77
2023-01-28T19:51:13.595Z,26.40
2023-01-28T19:53:41.892Z,28.53
2023-01-28T19:56:14.632Z,26.77
2023-01-28T19:58:43.668Z,27.60
2023-01-28T20:01:20.113Z,28.17
2023-01-28T20:03:51.282Z,28.83
2023-01-28T20:06:18.026Z,27.90
2023-01-28T20:08:45.747Z,27.67
2023-01-28T20:11:15.011Z,29.50
2023-01-28T20:13:44.267Z,28.13
2023-01-28T20:16:25.642Z,29.93
2023-01-28T20:18:58.209Z,30.03
2023-01-28T20:21:25.974Z,29.30
2023-01-28T20:23:54.854Z,29.27
2023-01-28T20:26:25.130Z,29.87
2023-01-28T20:28:52.135Z,29.23
2023-01-28T20:31:20.256Z,30.97
2023-01-28T20:33:47.326Z,31.20
2023-01-28T20:36:14.823Z,27.10
2023-01-28T20:38:44.080Z,30.47
2023-01-28T20:41:13.146Z,30.13
2023-01-28T20:43:41.597Z,31.63
2023-01-28T20:46:12.101Z,30.53
2023-01-28T20:48:38.850Z,28.10
2023-01-28T20:51:14.124Z,28.93
2023-01-28T20:53:41.844Z,29.37
2023-01-28T20:56:10.326Z,29.00
2023-01-28T20:58:37.117Z,29.20
2023-01-28T21:01:04.581Z,27.07
2023-01-28T21:03:31.589Z,27.97
2023-01-28T21:05:58.323Z,26.87
2023-01-28T21:08:24.939Z,27.87
2023-01-28T21:10:51.466Z,27.07
2023-01-28T21:13:18.294Z,28.20
2023-01-28T21:15:55.956Z,28.93
2023-01-28T21:18:23.118Z,27.10
2023-01-28T21:20:50.334Z,28.67
2023-01-28T21:23:17.121Z,29.10
2023-01-28T21:25:47.063Z,29.30
2023-01-28T21:28:14.254Z,27.63
2023-01-28T21:30:40.916Z,30.20
2023-01-28T21:33:08.074Z,31.10
2023-01-28T21:35:39.669Z,31.80
2023-01-28T21:38:06.641Z,31.47
2023-01-28T21:40:34.645Z,30.03
2023-01-28T21:43:01.802Z,31.73
2023-01-28T21:45:28.877Z,32.77
2023-01-28T21:47:55.780Z,31.90
2023-01-28T21:50:23.077Z,31.70
2023-01-28T21:52:50.570Z,29.63
2023-01-28T21:55:17.961Z,30.10
2023-01-28T21:57:46.428Z,31.53
2023-01-28T22:00:13.387Z,31.13
2023-01-28T22:02:40.766Z,29.67
2023-01-28T22:05:07.753Z,29.20
2023-01-28T22:07:36.704Z,30.37
2023-01-28T22:10:03.487Z,29.73
2023-01-28T22:12:30.359Z,30.23
2023-01-28T22:14:57.005Z,30.60
2023-01-28T22:17:25.930Z,30.93
2023-01-28T22:19:57.044Z,32.90
2023-01-28T22:22:24.388Z,34.67
2023-01-28T22:24:51.601Z,31.87
2023-01-28T22:27:18.261Z,32.57
2023-01-28T22:29:44.867Z,31.57
2023-01-28T22:32:11.441Z,31.17
2023-01-28T22:34:38.074Z,30.93
2023-01-28T22:37:07.451Z,28.90
2023-01-28T22:40:34.137Z,30.27
2023-01-28T22:43:00.973Z,29.80
2023-01-28T22:45:27.709Z,31.13
2023-01-28T22:47:54.421Z,29.70
2023-01-28T22:50:21.818Z,28.00
2023-01-28T22:52:48.873Z,27.20
2023-01-28T22:55:15.808Z,29.13
2023-01-28T22:57:42.394Z,26.83
2023-01-28T23:00:12.412Z,28.20
2023-01-28T23:02:39.132Z,27.17
2023-01-28T23:05:06.693Z,26.83
2023-01-28T23:07:33.313Z,27.37
2023-01-28T23:09:59.827Z,27.23
2023-01-28T23:12:26.423Z,26.77
2023-01-28T23:15:11.359Z,28.10
2023-01-28T23:17:56.620Z,29.47
2023-01-28T23:20:41.584Z,26.80
2023-01-28T23:23:34.687Z,26.57
2023-01-28T23:26:01.254Z,25.03
2023-01-28T23:28:28.041Z,26.97
2023-01-28T23:30:54.850Z,26.40
2023-01-28T23:33:21.493Z,26.70
2023-01-28T23:35:48.017Z,26.00
2023-01-28T23:38:15.153Z,26.30
2023-01-28T23:40:41.797Z,25.90
2023-01-28T23:43:08.318Z,26.87
2023-01-28T23:45:34.820Z,25.13
2023-01-28T23:48:01.540Z,26.03
2023-01-28T23:50:28.066Z,27.00
2023-01-28T23:52:54.527Z,28.30
2023-01-28T23:55:21.063Z,26.67
2023-01-28T23:57:48.058Z,27.93
